Time;durP1;ratioP1;P1;durP2;ratioP2;P2;SDS_P1;SDS_P2;PMS_P1;PMS_P2;Temp;Humidity;BMP_temperature;BMP_pressure;BME280_temperature;BME280_humidity;BME280_pressure;Samples;Min_cycle;Max_cycle;Signal;HPM_P1;HPM_P2
2021/09/14 00:02:00;;;;;;;2.17;1.70;;;20.80;64.30;;;;;;5053814;28;20174;-69
2021/09/14 00:04:26;;;;;;;2.50;2.17;;;20.80;64.20;;;;;;5053519;28;20221;-70
2021/09/14 00:06:51;;;;;;;2.08;1.95;;;20.80;64.20;;;;;;5053309;28;20645;-72
2021/09/14 00:09:17;;;;;;;2.55;1.83;;;20.80;64.30;;;;;;5053901;28;20182;-72
2021/09/14 00:11:42;;;;;;;1.70;1.60;;;20.80;64.30;;;;;;5053309;28;20279;-72
2021/09/14 00:14:08;;;;;;;1.95;1.80;;;20.80;64.30;;;;;;5052913;28;20172;-71
2021/09/14 00:16:33;;;;;;;1.80;1.70;;;20.70;64.30;;;;;;5053165;28;20207;-72
2021/09/14 00:18:59;;;;;;;3.22;1.83;;;20.70;64.30;;;;;;5053762;28;20171;-71
2021/09/14 00:21:24;;;;;;;1.90;1.77;;;20.80;64.30;;;;;;5052700;28;20171;-71
2021/09/14 00:23:50;;;;;;;1.90;1.63;;;20.80;64.30;;;;;;5053059;28;20201;-71
2021/09/14 00:26:15;;;;;;;1.90;1.80;;;20.70;64.30;;;;;;5053537;28;20182;-71
2021/09/14 00:28:41;;;;;;;1.95;1.75;;;20.70;64.30;;;;;;5052405;28;20164;-70
2021/09/14 00:31:06;;;;;;;2.08;1.98;;;20.70;64.30;;;;;;5053426;28;20191;-71
2021/09/14 00:33:32;;;;;;;1.92;1.83;;;20.70;64.30;;;;;;5052961;28;20574;-71
2021/09/14 00:35:57;;;;;;;2.95;1.60;;;20.70;64.30;;;;;;5052626;28;20211;-71
2021/09/14 00:38:23;;;;;;;2.70;2.00;;;20.70;64.30;;;;;;5053005;28;20199;-71
2021/09/14 00:40:48;;;;;;;3.78;2.20;;;20.70;64.30;;;;;;5053189;28;20167;-71
2021/09/14 00:43:20;;;;;;;2.72;1.70;;;20.70;64.30;;;;;;5052453;28;20533;-71
2021/09/14 00:45:47;;;;;;;2.20;1.98;;;20.70;64.30;;;;;;5052996;28;20223;-71
2021/09/14 00:48:12;;;;;;;2.13;1.92;;;20.70;64.30;;;;;;5053316;28;20261;-70
2021/09/14 00:50:38;;;;;;;1.98;1.80;;;20.70;64.30;;;;;;5051971;28;20181;-71
2021/09/14 00:53:03;;;;;;;2.28;1.70;;;20.70;64.40;;;;;;5035240;28;20163;-72
2021/09/14 00:55:29;;;;;;;2.17;1.83;;;20.70;64.30;;;;;;5052622;28;20175;-72
2021/09/14 00:57:54;;;;;;;2.63;1.80;;;20.70;64.40;;;;;;5052130;28;20510;-70
2021/09/14 01:00:20;;;;;;;2.30;2.10;;;20.70;64.40;;;;;;5052599;28;20274;-71
2021/09/14 01:02:46;;;;;;;2.28;2.08;;;20.70;64.40;;;;;;5053222;28;20176;-70
2021/09/14 01:05:12;;;;;;;2.13;1.73;;;20.70;64.40;;;;;;5052327;28;20587;-71
2021/09/14 01:07:38;;;;;;;2.13;1.60;;;20.70;64.40;;;;;;5052680;28;20167;-72
2021/09/14 01:10:03;;;;;;;2.30;2.10;;;20.70;64.40;;;;;;5052085;28;20233;-72
2021/09/14 01:12:29;;;;;;;2.35;2.13;;;20.60;64.30;;;;;;5052242;28;20227;-72
2021/09/14 01:14:56;;;;;;;1.90;1.80;;;20.60;64.40;;;;;;5052638;28;20265;-72
2021/09/14 01:17:22;;;;;;;2.10;1.90;;;20.70;64.40;;;;;;5051766;28;20213;-72
2021/09/14 01:19:47;;;;;;;2.08;1.90;;;20.60;64.30;;;;;;5052927;28;20179;-72
2021/09/14 01:22:14;;;;;;;2.13;1.92;;;20.70;64.40;;;;;;5052808;28;20641;-71
2021/09/14 01:24:39;;;;;;;2.30;2.10;;;20.60;64.30;;;;;;5051691;28;20183;-71
2021/09/14 01:27:05;;;;;;;2.10;1.90;;;20.60;64.40;;;;;;5052643;28;20212;-70
2021/09/14 01:32:15;;;;;;;2.10;1.95;;;20.70;64.40;;;;;;5052010;28;20182;-71
2021/09/14 01:34:40;;;;;;;2.83;1.90;;;20.60;64.30;;;;;;5053361;28;20175;-71
2021/09/14 01:37:06;;;;;;;2.03;1.85;;;20.60;64.40;;;;;;5056658;28;20210;-72
2021/09/14 01:39:32;;;;;;;1.95;1.85;;;20.60;64.40;;;;;;5055610;28;20250;-72
2021/09/14 01:41:57;;;;;;;1.88;1.77;;;20.60;64.40;;;;;;5056595;28;20637;-72
2021/09/14 01:44:23;;;;;;;2.25;2.03;;;20.60;64.40;;;;;;5056467;28;20190;-71
2021/09/14 01:46:51;;;;;;;1.92;1.83;;;20.60;64.40;;;;;;5055690;28;20175;-70
2021/09/14 01:49:16;;;;;;;1.90;1.80;;;20.60;64.40;;;;;;5056557;28;20186;-71
2021/09/14 01:51:42;;;;;;;2.35;2.15;;;20.60;64.40;;;;;;5055981;28;20565;-71
2021/09/14 01:54:07;;;;;;;2.38;1.85;;;20.60;64.40;;;;;;5055625;28;20535;-71
2021/09/14 01:56:33;;;;;;;2.15;2.05;;;20.60;64.50;;;;;;5055780;28;20241;-71
2021/09/14 01:58:59;;;;;;;2.20;2.00;;;20.60;64.40;;;;;;5056499;28;20246;-69
2021/09/14 02:01:29;;;;;;;2.05;1.85;;;20.60;64.50;;;;;;5055366;28;20580;-71
2021/09/14 02:04:05;;;;;;;2.08;1.88;;;20.60;64.40;;;;;;5056332;28;20203;-70
2021/09/14 02:06:48;;;;;;;2.50;2.30;;;20.60;64.40;;;;;;5055143;28;20523;-71
2021/09/14 02:23:40;;;;;;;2.33;2.10;;;20.60;64.40;;;;;;5056003;28;20186;-73
2021/09/14 02:34:00;;;;;;;2.38;2.17;;;20.50;64.30;;;;;;5055658;28;20178;-72
2021/09/14 02:39:23;;;;;;;2.10;1.90;;;20.50;64.40;;;;;;5055575;28;20544;-71
2021/09/14 02:42:00;;;;;;;2.53;1.95;;;20.50;64.40;;;;;;5054893;28;20612;-71
2021/09/14 03:00:32;;;;;;;2.05;1.90;;;20.50;64.50;;;;;;5054863;28;20174;-71
2021/09/14 03:02:58;;;;;;;2.10;1.90;;;20.50;64.50;;;;;;5054388;28;20175;-70
2021/09/14 03:05:23;;;;;;;2.28;2.08;;;20.50;64.40;;;;;;5054636;28;20182;-71
2021/09/14 03:07:49;;;;;;;2.35;1.83;;;20.50;64.40;;;;;;5055164;28;20173;-72
2021/09/14 03:10:14;;;;;;;1.90;1.63;;;20.50;64.40;;;;;;5054501;28;20629;-71
2021/09/14 03:12:40;;;;;;;2.70;2.05;;;20.50;64.50;;;;;;5054815;28;20401;-71
2021/09/14 03:15:06;;;;;;;3.53;1.88;;;20.50;64.50;;;;;;5054979;28;20220;-71
2021/09/14 03:17:31;;;;;;;2.10;1.98;;;20.50;64.40;;;;;;5053689;28;20219;-71
2021/09/14 03:19:57;;;;;;;2.50;2.08;;;20.40;64.40;;;;;;5054610;28;20182;-71
2021/09/14 03:22:22;;;;;;;1.85;1.75;;;20.50;64.50;;;;;;5054406;28;20621;-72
2021/09/14 03:24:48;;;;;;;2.53;2.33;;;20.50;64.40;;;;;;5053783;28;20633;-71
2021/09/14 03:27:13;;;;;;;2.47;2.28;;;20.50;64.40;;;;;;5054749;28;20171;-71
2021/09/14 03:29:38;;;;;;;2.08;1.98;;;20.40;64.40;;;;;;5054329;28;20182;-71
2021/09/14 03:32:04;;;;;;;2.25;2.05;;;20.40;64.40;;;;;;5053834;28;20190;-72
2021/09/14 03:34:30;;;;;;;2.33;2.10;;;20.50;64.40;;;;;;5054151;28;20258;-72
2021/09/14 03:36:55;;;;;;;2.00;1.90;;;20.40;64.40;;;;;;5054585;28;20211;-72
2021/09/14 03:39:21;;;;;;;3.08;2.13;;;20.40;64.40;;;;;;5053243;28;20237;-73
2021/09/14 03:41:46;;;;;;;2.28;1.95;;;20.40;64.40;;;;;;5054530;28;20211;-71
2021/09/14 03:44:12;;;;;;;2.50;2.13;;;20.40;64.40;;;;;;5054351;28;20171;-71
2021/09/14 03:46:37;;;;;;;2.28;2.08;;;20.40;64.40;;;;;;5053251;28;20202;-71
2021/09/14 03:49:03;;;;;;;2.38;2.28;;;20.40;65.30;;;;;;5054134;28;20171;-71
2021/09/14 03:51:29;;;;;;;2.15;2.05;;;20.40;64.40;;;;;;5053976;28;20182;-73
2021/09/14 03:53:55;;;;;;;2.08;1.92;;;20.40;64.40;;;;;;5053553;28;20198;-71
2021/09/14 03:56:20;;;;;;;1.98;1.83;;;20.40;64.50;;;;;;5053768;28;20195;-71
2021/09/14 03:58:46;;;;;;;3.17;2.50;;;20.40;64.50;;;;;;5052336;28;20202;-69
2021/09/14 04:01:11;;;;;;;2.22;2.08;;;20.40;64.50;;;;;;5054044;28;20625;-70
2021/09/14 04:03:50;;;;;;;2.45;2.25;;;20.40;64.50;;;;;;5053608;28;20179;-71
2021/09/14 04:08:51;;;;;;;2.33;2.13;;;20.40;64.50;;;;;;5053681;28;20185;-71
2021/09/14 04:11:17;;;;;;;2.10;2.00;;;20.40;64.40;;;;;;5053765;28;20256;-72
2021/09/14 04:13:42;;;;;;;3.35;2.10;;;20.40;64.50;;;;;;5052735;28;20264;-71
2021/09/14 04:16:08;;;;;;;2.58;2.38;;;20.40;64.50;;;;;;5053424;28;20237;-71
2021/09/14 04:18:33;;;;;;;2.13;2.03;;;20.40;64.50;;;;;;5053318;28;20236;-71
2021/09/14 04:20:59;;;;;;;2.35;2.17;;;20.40;64.50;;;;;;5052810;28;20630;-71
2021/09/14 04:23:24;;;;;;;2.63;1.98;;;20.40;64.50;;;;;;5053269;28;20186;-71
2021/09/14 04:25:50;;;;;;;2.50;2.30;;;20.40;64.50;;;;;;5053597;28;20262;-70
2021/09/14 04:28:15;;;;;;;2.15;1.95;;;20.30;64.50;;;;;;5052838;28;20182;-71
2021/09/14 04:30:41;;;;;;;2.40;2.20;;;20.40;64.50;;;;;;5052937;28;20171;-71
2021/09/14 04:33:08;;;;;;;2.47;2.25;;;20.30;64.50;;;;;;5053118;28;20651;-71
2021/09/14 04:35:34;;;;;;;2.88;2.05;;;20.40;64.50;;;;;;5052392;28;20176;-72
2021/09/14 04:37:59;;;;;;;2.40;2.20;;;20.40;64.50;;;;;;5053369;28;20264;-71
2021/09/14 04:40:24;;;;;;;2.20;2.00;;;20.30;64.40;;;;;;5052897;28;20220;-71
2021/09/14 04:42:50;;;;;;;2.40;2.20;;;20.30;64.40;;;;;;5052564;28;20629;-70
2021/09/14 04:45:15;;;;;;;2.70;2.40;;;20.30;64.50;;;;;;5053091;28;20633;-71
2021/09/14 04:47:41;;;;;;;2.83;2.10;;;20.30;64.50;;;;;;5052642;28;20190;-70
2021/09/14 04:50:07;;;;;;;3.10;2.40;;;20.30;64.50;;;;;;5052577;28;20171;-71
2021/09/14 04:52:32;;;;;;;2.25;2.08;;;20.30;64.50;;;;;;5052861;28;20206;-71
2021/09/14 04:54:58;;;;;;;2.30;2.10;;;20.30;64.40;;;;;;5052511;28;20198;-71
2021/09/14 04:57:23;;;;;;;2.35;2.15;;;20.30;64.50;;;;;;5052485;28;20203;-71
2021/09/14 04:59:49;;;;;;;2.53;2.33;;;20.30;64.50;;;;;;5052897;28;20289;-70
2021/09/14 05:02:14;;;;;;;2.15;1.95;;;20.30;64.50;;;;;;5052239;28;20171;-71
2021/09/14 05:04:40;;;;;;;3.40;2.33;;;20.30;64.50;;;;;;5052719;28;20175;-71
2021/09/14 05:07:05;;;;;;;2.47;2.17;;;20.30;64.50;;;;;;5052763;28;20206;-71
2021/09/14 05:09:31;;;;;;;2.60;2.40;;;20.30;64.50;;;;;;5051480;28;20593;-72
2021/09/14 05:11:56;;;;;;;2.15;1.95;;;20.30;64.50;;;;;;5052646;28;20223;-72
2021/09/14 05:14:22;;;;;;;2.67;2.08;;;20.30;64.50;;;;;;5052316;28;20175;-72
2021/09/14 05:16:47;;;;;;;2.22;2.00;;;20.30;64.50;;;;;;5052146;28;20673;-71
2021/09/14 05:19:15;;;;;;;2.25;2.13;;;20.30;64.50;;;;;;5052826;28;20237;-71
2021/09/14 05:21:46;;;;;;;2.50;2.30;;;20.30;64.50;;;;;;5052577;28;20245;-72
2021/09/14 05:24:12;;;;;;;2.92;2.63;;;20.30;64.50;;;;;;5052016;28;20582;-71
2021/09/14 05:26:39;;;;;;;2.53;2.33;;;20.30;64.50;;;;;;5052317;28;20178;-71
2021/09/14 05:29:04;;;;;;;2.10;2.00;;;20.30;64.50;;;;;;5052493;28;20641;-71
2021/09/14 05:31:30;;;;;;;3.42;2.65;;;20.30;64.50;;;;;;5051520;28;20213;-71
2021/09/14 05:33:55;;;;;;;2.83;2.53;;;20.30;64.50;;;;;;5052767;28;20206;-72
2021/09/14 05:36:21;;;;;;;2.50;2.30;;;20.30;64.50;;;;;;5052222;28;20222;-71
2021/09/14 05:38:46;;;;;;;2.60;2.40;;;20.30;64.50;;;;;;5051896;28;20214;-72
2021/09/14 05:41:12;;;;;;;2.33;2.20;;;20.30;64.50;;;;;;5034819;28;20171;-71
2021/09/14 05:43:37;;;;;;;2.75;2.55;;;20.30;64.40;;;;;;5051960;28;20518;-71
2021/09/14 05:46:03;;;;;;;2.50;2.30;;;20.30;64.40;;;;;;5051562;28;20167;-70
2021/09/14 05:48:28;;;;;;;2.85;2.65;;;20.30;64.50;;;;;;5052148;28;20229;-70
2021/09/14 05:50:54;;;;;;;2.38;2.17;;;20.30;64.40;;;;;;5052506;28;20224;-71
2021/09/14 05:53:19;;;;;;;2.42;2.15;;;20.30;64.40;;;;;;5051357;28;20175;-72
2021/09/14 05:55:45;;;;;;;2.40;2.20;;;20.30;64.40;;;;;;5052307;28;20519;-71
2021/09/14 05:58:10;;;;;;;2.83;2.53;;;20.30;64.40;;;;;;5052306;28;20661;-71
2021/09/14 06:00:36;;;;;;;3.38;2.40;;;20.30;64.40;;;;;;5051290;28;20237;-68
2021/09/14 06:03:02;;;;;;;3.08;2.28;;;20.30;64.30;;;;;;5052378;28;20175;-71
2021/09/14 06:05:27;;;;;;;2.60;2.40;;;20.30;64.40;;;;;;5051232;28;20176;-73
2021/09/14 06:07:53;;;;;;;2.30;2.20;;;20.30;64.40;;;;;;5052310;28;20171;-72
2021/09/14 06:10:18;;;;;;;2.33;2.17;;;20.30;64.30;;;;;;5052206;28;20258;-73
2021/09/14 06:12:44;;;;;;;2.47;2.22;;;20.30;64.20;;;;;;5050849;28;20242;-72
2021/09/14 06:15:10;;;;;;;2.20;2.00;;;20.30;64.20;;;;;;5052123;28;20175;-71
2021/09/14 06:17:36;;;;;;;2.83;2.63;;;20.40;64.20;;;;;;5051942;28;20757;-71
2021/09/14 06:20:01;;;;;;;2.65;2.45;;;20.40;64.20;;;;;;5051515;28;20176;-71
2021/09/14 06:22:27;;;;;;;2.33;2.13;;;20.40;64.10;;;;;;5053823;28;20266;-71
2021/09/14 06:24:52;;;;;;;2.63;2.20;;;20.40;64.10;;;;;;5055841;28;20201;-71
2021/09/14 06:27:18;;;;;;;2.60;2.13;;;20.40;64.10;;;;;;5055015;28;20211;-70
2021/09/14 06:29:43;;;;;;;2.47;2.22;;;20.40;64.00;;;;;;5055548;28;20168;-71
2021/09/14 06:32:09;;;;;;;2.05;1.95;;;20.40;64.00;;;;;;5055857;28;20214;-70
2021/09/14 06:34:35;;;;;;;2.63;2.42;;;20.40;64.00;;;;;;5054800;28;20289;-72
2021/09/14 06:37:01;;;;;;;2.42;2.20;;;20.40;64.00;;;;;;5055586;28;20211;-71
2021/09/14 06:39:26;;;;;;;2.65;2.42;;;20.40;63.90;;;;;;5055672;28;20265;-74
2021/09/14 06:41:52;;;;;;;2.55;2.35;;;20.40;64.00;;;;;;5054726;28;20237;-71
2021/09/14 06:44:18;;;;;;;2.42;2.22;;;20.40;63.90;;;;;;5055676;28;20206;-71
2021/09/14 06:46:43;;;;;;;4.43;2.00;;;20.50;63.90;;;;;;5055189;28;20250;-66
2021/09/14 06:49:09;;;;;;;2.28;2.08;;;20.50;63.90;;;;;;5054929;28;20182;-66
2021/09/14 06:51:35;;;;;;;3.05;2.50;;;20.50;63.80;;;;;;5055135;28;20179;-71
2021/09/14 06:54:00;;;;;;;5.70;2.65;;;20.50;64.00;;;;;;5055283;28;20180;-74
2021/09/14 06:56:26;;;;;;;4.22;2.17;;;20.50;63.90;;;;;;5054002;28;20223;-72
2021/09/14 06:58:51;;;;;;;2.80;2.40;;;20.60;64.00;;;;;;5055386;28;20258;-71
2021/09/14 07:01:18;;;;;;;5.30;2.67;;;20.60;64.10;;;;;;5055320;28;20171;-69
2021/09/14 07:03:43;;;;;;;4.75;2.85;;;20.60;64.00;;;;;;5054154;28;20182;-70
2021/09/14 07:06:09;;;;;;;3.10;2.70;;;20.60;64.00;;;;;;5055071;28;20172;-71
2021/09/14 07:08:34;;;;;;;6.35;2.47;;;20.60;64.20;;;;;;5054532;28;20187;-75
2021/09/14 07:11:00;;;;;;;5.10;2.38;;;20.60;63.90;;;;;;5054120;28;20218;-72
2021/09/14 07:13:25;;;;;;;4.10;2.45;;;20.70;64.10;;;;;;5054815;28;20206;-74
2021/09/14 07:15:51;;;;;;;4.40;2.67;;;20.60;64.10;;;;;;5054248;28;20170;-71
2021/09/14 07:18:16;;;;;;;5.72;2.70;;;20.60;64.20;;;;;;5054963;28;20217;-70
2021/09/14 07:20:42;;;;;;;3.65;2.10;;;20.60;64.20;;;;;;5054444;28;20228;-70
2021/09/14 07:23:07;;;;;;;3.22;2.75;;;20.60;64.30;;;;;;5054434;28;20548;-71
2021/09/14 07:25:38;;;;;;;3.40;3.10;;;20.50;64.10;;;;;;5054405;28;20332;-73
2021/09/14 07:28:05;;;;;;;3.65;2.80;;;20.50;64.20;;;;;;5054537;28;20207;-72
2021/09/14 07:30:30;;;;;;;4.82;2.83;;;20.50;64.20;;;;;;5053707;28;20183;-73
2021/09/14 07:32:56;;;;;;;3.40;3.10;;;20.50;64.20;;;;;;5054547;28;20193;-72
2021/09/14 07:35:22;;;;;;;2.88;2.67;;;20.50;64.20;;;;;;5054196;28;20539;-72
2021/09/14 07:37:48;;;;;;;3.50;2.70;;;20.50;64.20;;;;;;5053635;28;20218;-72
2021/09/14 07:40:13;;;;;;;5.55;2.83;;;20.50;64.20;;;;;;5054410;28;20518;-72
2021/09/14 07:42:39;;;;;;;3.40;2.60;;;20.50;64.20;;;;;;5053974;28;20560;-71
2021/09/14 07:45:05;;;;;;;3.53;2.90;;;20.50;64.20;;;;;;5053754;28;20633;-70
2021/09/14 07:47:30;;;;;;;2.55;2.35;;;20.60;64.10;;;;;;5054007;28;20187;-70
2021/09/14 07:49:56;;;;;;;3.50;2.58;;;20.60;64.10;;;;;;5054201;28;20225;-70
2021/09/14 07:52:21;;;;;;;3.78;2.70;;;20.60;64.10;;;;;;5053149;28;20179;-72
2021/09/14 07:54:47;;;;;;;4.55;2.88;;;20.60;63.90;;;;;;5054055;28;20228;-72
2021/09/14 07:57:12;;;;;;;3.13;2.80;;;20.60;63.90;;;;;;5053843;28;20730;-71
2021/09/14 07:59:38;;;;;;;2.85;2.38;;;20.60;63.80;;;;;;5053108;28;20186;-71
2021/09/14 08:02:04;;;;;;;3.50;2.58;;;20.70;63.90;;;;;;5054104;28;20179;-71
2021/09/14 08:04:29;;;;;;;4.35;3.00;;;20.70;63.80;;;;;;5053656;28;20593;-71
2021/09/14 08:06:55;;;;;;;3.20;2.63;;;20.70;63.70;;;;;;5053125;28;20598;-71
2021/09/14 08:09:21;;;;;;;2.80;2.55;;;20.70;63.70;;;;;;5053598;28;20171;-72
2021/09/14 08:11:47;;;;;;;2.90;2.70;;;20.70;64.50;;;;;;5053626;28;20222;-72
2021/09/14 08:14:12;;;;;;;3.15;2.85;;;20.80;63.80;;;;;;5053212;28;20325;-72
2021/09/14 08:16:38;;;;;;;3.25;2.10;;;20.80;63.80;;;;;;5053202;28;20272;-71
2021/09/14 08:19:03;;;;;;;5.05;2.53;;;20.90;63.80;;;;;;5053313;28;20707;-70
2021/09/14 08:21:29;;;;;;;2.80;2.58;;;20.90;63.70;;;;;;5053308;28;20179;-71
2021/09/14 08:23:54;;;;;;;2.90;2.58;;;20.90;63.70;;;;;;5053423;28;20262;-71
2021/09/14 08:26:20;;;;;;;4.20;2.95;;;20.90;63.70;;;;;;5052951;28;20175;-71
2021/09/14 08:28:45;;;;;;;3.33;2.63;;;20.90;63.80;;;;;;5053392;28;20190;-72
2021/09/14 08:31:11;;;;;;;3.13;2.67;;;20.90;63.80;;;;;;5053541;28;20660;-72
2021/09/14 08:33:36;;;;;;;4.70;2.58;;;20.90;63.90;;;;;;5052454;28;20183;-72
2021/09/14 08:36:02;;;;;;;5.07;2.80;;;20.90;63.80;;;;;;5053451;28;20175;-71
2021/09/14 08:38:27;;;;;;;2.97;2.67;;;20.90;63.90;;;;;;5053027;28;20229;-71
2021/09/14 08:40:53;;;;;;;3.63;2.40;;;21.00;64.00;;;;;;5052543;28;20163;-72
2021/09/14 08:43:18;;;;;;;3.60;2.85;;;21.00;63.90;;;;;;5053335;28;20248;-71
2021/09/14 08:45:44;;;;;;;2.75;2.45;;;21.00;63.90;;;;;;5052477;28;20178;-71
2021/09/14 08:48:10;;;;;;;2.80;2.60;;;21.10;63.90;;;;;;5052561;28;20205;-71
2021/09/14 08:50:35;;;;;;;2.80;2.60;;;21.10;63.90;;;;;;5035000;28;20698;-72
2021/09/14 08:53:01;;;;;;;3.03;2.65;;;21.20;63.90;;;;;;5053150;28;20183;-71
2021/09/14 08:55:27;;;;;;;2.70;2.50;;;21.20;63.80;;;;;;5051920;28;20174;-71
2021/09/14 08:57:53;;;;;;;2.83;2.63;;;21.20;63.80;;;;;;5052723;28;20686;-70
2021/09/14 09:00:38;;;;;;;2.70;2.50;;;21.20;63.70;;;;;;5053171;28;20254;-71
2021/09/14 09:03:03;;;;;;;4.90;2.38;;;21.30;63.80;;;;;;5052225;28;20209;-70
2021/09/14 09:05:42;;;;;;;3.83;2.58;;;21.30;63.70;;;;;;5052583;28;20198;-71
2021/09/14 09:08:21;;;;;;;5.45;3.88;;;21.30;63.80;;;;;;5035075;28;20535;-73
2021/09/14 09:11:06;;;;;;;4.22;3.15;;;21.30;63.60;;;;;;5052816;28;20273;-71
2021/09/14 09:13:34;;;;;;;4.43;3.10;;;21.40;63.70;;;;;;5052606;28;20182;-73
2021/09/14 09:15:59;;;;;;;5.00;3.22;;;21.40;63.60;;;;;;5051961;28;20175;-72
2021/09/14 09:18:25;;;;;;;3.70;3.30;;;21.40;63.60;;;;;;5052350;28;20550;-70
2021/09/14 09:20:50;;;;;;;5.10;2.85;;;21.40;63.70;;;;;;5052644;28;20617;-70
2021/09/14 09:23:23;;;;;;;2.90;2.67;;;21.40;63.70;;;;;;5052231;28;20182;-70
2021/09/14 09:25:51;;;;;;;3.53;2.72;;;21.50;63.90;;;;;;5052744;28;20179;-72
2021/09/14 09:28:21;;;;;;;3.45;2.63;;;21.50;63.80;;;;;;5052522;28;20621;-71
2021/09/14 09:30:59;;;;;;;3.30;2.97;;;21.50;63.80;;;;;;5051947;28;20187;-71
2021/09/14 09:33:27;;;;;;;3.15;2.40;;;21.50;63.90;;;;;;5052443;28;20198;-72
2021/09/14 09:35:59;;;;;;;7.13;2.80;;;21.50;63.90;;;;;;5052426;28;20175;-72
2021/09/14 09:38:24;;;;;;;3.13;2.85;;;21.60;63.90;;;;;;5051523;28;20629;-72
2021/09/14 09:40:50;;;;;;;3.67;2.80;;;21.60;63.80;;;;;;5052536;28;20171;-71
2021/09/14 09:43:26;;;;;;;2.97;2.78;;;21.60;63.80;;;;;;5034621;28;20175;-71
2021/09/14 09:45:51;;;;;;;2.63;2.42;;;21.70;63.80;;;;;;5052633;28;20171;-71
2021/09/14 09:48:17;;;;;;;4.07;2.65;;;21.60;63.70;;;;;;5052301;28;20177;-71
2021/09/14 09:50:43;;;;;;;3.25;2.92;;;21.70;63.70;;;;;;5051648;28;20883;-71
2021/09/14 09:53:09;;;;;;;3.22;2.92;;;21.70;63.60;;;;;;5052317;28;20183;-72
2021/09/14 09:55:34;;;;;;;4.05;2.80;;;21.70;63.50;;;;;;5051995;28;20175;-72
2021/09/14 09:58:03;;;;;;;2.85;2.30;;;21.80;63.50;;;;;;5054517;28;20221;-71
2021/09/14 10:00:29;;;;;;;4.60;3.13;;;21.80;63.40;;;;;;5056020;28;20222;-71
2021/09/14 10:03:02;;;;;;;3.13;2.72;;;21.80;63.40;;;;;;5038457;28;20183;-70
2021/09/14 10:05:30;;;;;;;2.60;2.40;;;21.90;63.30;;;;;;5055190;28;20193;-73
2021/09/14 10:07:55;;;;;;;2.50;2.30;;;21.90;63.30;;;;;;5038305;28;20171;-72
2021/09/14 10:10:21;;;;;;;3.05;2.80;;;21.90;63.30;;;;;;5037906;28;20171;-73
2021/09/14 10:12:47;;;;;;;3.47;2.88;;;21.80;63.50;;;;;;5037284;28;20623;-72
2021/09/14 10:15:13;;;;;;;3.50;2.97;;;21.70;63.60;;;;;;5021928;28;20297;-71
2021/09/14 10:17:52;;;;;;;3.40;2.40;;;21.70;63.80;;;;;;5055581;28;20211;-72
2021/09/14 10:20:22;;;;;;;3.40;2.55;;;21.70;63.90;;;;;;5055157;28;20175;-71
2021/09/14 10:23:01;;;;;;;3.42;2.30;;;21.70;63.90;;;;;;5055746;28;20295;-71
2021/09/14 10:25:26;;;;;;;4.28;2.90;;;21.70;64.80;;;;;;5055587;28;20694;-71
2021/09/14 10:27:52;;;;;;;2.70;2.35;;;21.60;63.90;;;;;;5055246;28;20679;-71
2021/09/14 10:30:23;;;;;;;2.78;2.50;;;21.60;64.00;;;;;;5055752;28;20653;-71
2021/09/14 10:32:48;;;;;;;3.22;2.92;;;21.60;64.00;;;;;;5054994;28;20179;-71
2021/09/14 10:35:24;;;;;;;3.47;2.45;;;21.60;64.00;;;;;;5055547;28;20179;-71
2021/09/14 10:37:51;;;;;;;2.72;2.47;;;21.60;64.00;;;;;;5055713;28;20293;-71
2021/09/14 10:40:16;;;;;;;3.03;2.72;;;21.60;64.00;;;;;;5037126;28;20167;-71
2021/09/14 10:42:46;;;;;;;2.80;2.15;;;21.60;64.10;;;;;;5055360;28;20175;-72
2021/09/14 10:45:13;;;;;;;2.92;2.72;;;21.60;64.10;;;;;;5055574;28;20190;-69
2021/09/14 10:47:41;;;;;;;4.00;2.60;;;21.60;64.20;;;;;;5054357;28;20209;-70
2021/09/14 10:50:08;;;;;;;3.65;2.53;;;21.60;64.20;;;;;;5055277;28;20551;-67
2021/09/14 10:52:37;;;;;;;5.53;3.00;;;21.60;64.20;;;;;;5055103;28;20171;-67
2021/09/14 10:55:15;;;;;;;3.17;2.85;;;21.60;64.40;;;;;;5054411;28;20645;-68
2021/09/14 10:57:46;;;;;;;3.33;2.78;;;21.60;64.30;;;;;;5054879;28;20616;-67
2021/09/14 11:00:33;;;;;;;5.82;2.45;;;21.70;64.30;;;;;;5054962;28;20560;-67
2021/09/14 11:03:03;;;;;;;3.33;3.03;;;21.70;64.30;;;;;;5053942;28;20182;-67
2021/09/14 11:05:29;;;;;;;4.05;2.72;;;21.80;64.20;;;;;;5054840;28;20297;-70
2021/09/14 11:08:02;;;;;;;4.55;2.78;;;21.90;64.10;;;;;;5053843;28;20595;-73
2021/09/14 11:10:39;;;;;;;10.10;3.30;;;21.90;64.10;;;;;;5054521;28;20181;-74
2021/09/14 11:13:04;;;;;;;5.05;3.20;;;21.90;64.00;;;;;;5055071;28;20194;-75
2021/09/14 11:15:30;;;;;;;6.68;3.65;;;22.00;64.00;;;;;;5053975;28;20187;-72
2021/09/14 11:17:55;;;;;;;6.32;4.05;;;21.90;64.00;;;;;;5054943;28;20264;-71
2021/09/14 11:20:21;;;;;;;6.72;3.75;;;21.90;64.10;;;;;;5054628;28;20170;-70
2021/09/14 11:22:49;;;;;;;5.40;3.38;;;22.00;64.00;;;;;;5054210;28;20253;-71
2021/09/14 11:25:17;;;;;;;6.82;3.35;;;22.00;63.90;;;;;;5054962;28;20171;-71
2021/09/14 11:28:03;;;;;;;6.80;3.85;;;22.00;63.80;;;;;;5054337;28;20663;-73
2021/09/14 11:30:29;;;;;;;5.15;3.63;;;22.00;63.80;;;;;;5054164;28;20225;-72
2021/09/14 11:32:55;;;;;;;7.97;3.40;;;22.00;63.80;;;;;;5054734;28;20179;-72
2021/09/14 11:35:21;;;;;;;4.85;3.70;;;22.10;63.70;;;;;;5036559;28;20175;-72
2021/09/14 11:38:00;;;;;;;5.60;3.60;;;22.10;63.80;;;;;;5019355;28;20215;-71
2021/09/14 11:40:26;;;;;;;5.57;4.00;;;22.00;63.70;;;;;;5054332;28;20178;-71
2021/09/14 11:42:58;;;;;;;4.90;3.55;;;22.10;63.70;;;;;;5054538;28;20171;-71
2021/09/14 11:45:25;;;;;;;8.15;3.90;;;22.10;63.60;;;;;;5054140;28;20274;-71
2021/09/14 11:47:52;;;;;;;6.50;3.63;;;22.10;63.60;;;;;;5054294;28;20179;-71
2021/09/14 11:50:31;;;;;;;7.40;4.22;;;22.10;63.60;;;;;;5053450;28;21017;-72
2021/09/14 11:53:13;;;;;;;7.95;4.15;;;22.10;63.70;;;;;;5054083;28;20603;-71
2021/09/14 11:55:43;;;;;;;11.18;4.57;;;22.00;63.60;;;;;;5053890;28;20238;-72
2021/09/14 11:58:08;;;;;;;6.53;4.15;;;22.00;63.80;;;;;;5053282;28;20672;-71
2021/09/14 12:00:45;;;;;;;7.60;3.90;;;22.00;63.80;;;;;;5035974;28;20225;-71
2021/09/14 12:03:11;;;;;;;7.32;3.90;;;22.00;63.90;;;;;;5054061;28;20186;-71
2021/09/14 12:05:36;;;;;;;6.05;3.92;;;22.10;63.80;;;;;;5053003;28;20175;-72
2021/09/14 12:08:08;;;;;;;7.60;4.30;;;22.10;63.60;;;;;;5054012;28;20171;-72
2021/09/14 12:10:42;;;;;;;5.88;3.78;;;22.10;63.50;;;;;;5053228;28;20558;-73
2021/09/14 12:13:12;;;;;;;5.63;3.70;;;22.20;63.40;;;;;;5053053;28;20179;-72
2021/09/14 12:15:38;;;;;;;7.47;4.05;;;22.20;63.40;;;;;;5019979;28;20183;-73
2021/09/14 12:18:04;;;;;;;4.18;3.58;;;22.20;63.40;;;;;;5053487;28;20214;-73
2021/09/14 12:20:29;;;;;;;9.40;3.92;;;22.20;63.20;;;;;;5052386;28;20182;-73
2021/09/14 12:22:55;;;;;;;5.95;4.05;;;22.30;63.20;;;;;;5053505;28;20171;-72
2021/09/14 12:25:20;;;;;;;6.13;4.03;;;22.30;63.10;;;;;;5052541;28;20618;-72
2021/09/14 12:27:46;;;;;;;6.10;3.65;;;22.40;63.10;;;;;;5053399;28;20222;-73
2021/09/14 12:30:11;;;;;;;4.90;3.45;;;22.40;62.80;;;;;;5053565;28;20220;-73
2021/09/14 12:32:37;;;;;;;5.68;3.70;;;22.40;62.80;;;;;;5052549;28;20179;-73
2021/09/14 12:35:04;;;;;;;4.43;3.35;;;22.50;62.70;;;;;;5053557;28;20173;-73
2021/09/14 12:37:29;;;;;;;4.45;3.50;;;22.40;62.60;;;;;;5052743;28;20693;-73
2021/09/14 12:39:55;;;;;;;4.78;4.22;;;22.50;62.70;;;;;;5052591;28;20233;-73
2021/09/14 12:42:20;;;;;;;4.13;3.72;;;22.50;63.50;;;;;;5052931;28;20179;-72
2021/09/14 12:44:46;;;;;;;4.60;3.90;;;22.40;62.60;;;;;;5053154;28;20190;-72
2021/09/14 12:47:11;;;;;;;5.47;4.03;;;22.50;62.60;;;;;;5052668;28;20614;-71
2021/09/14 12:49:37;;;;;;;4.03;3.63;;;22.50;62.60;;;;;;5052914;28;20293;-73
2021/09/14 12:52:02;;;;;;;3.95;3.55;;;22.50;62.50;;;;;;5053014;28;20179;-73
2021/09/14 12:54:28;;;;;;;4.70;3.67;;;22.50;62.50;;;;;;5052127;28;20542;-73
2021/09/14 12:56:56;;;;;;;5.32;3.20;;;22.50;62.40;;;;;;5053036;28;20211;-72
2021/09/14 12:59:21;;;;;;;5.45;3.80;;;22.50;62.40;;;;;;5052833;28;20301;-73
2021/09/14 13:01:47;;;;;;;5.45;3.65;;;22.50;62.30;;;;;;5052473;28;20175;-72
2021/09/14 13:04:12;;;;;;;4.45;3.90;;;22.60;62.20;;;;;;5053058;28;20194;-72
2021/09/14 13:06:38;;;;;;;4.32;3.92;;;22.60;62.20;;;;;;5052624;28;20194;-73
2021/09/14 13:09:04;;;;;;;5.10;3.30;;;22.60;62.20;;;;;;5052462;28;20263;-74
2021/09/14 13:11:30;;;;;;;4.22;3.67;;;22.70;62.00;;;;;;5052242;28;20242;-74
2021/09/14 13:16:39;;;;;;;4.25;3.63;;;22.70;61.90;;;;;;5051796;28;20209;-74
2021/09/14 13:19:05;;;;;;;4.95;3.50;;;22.80;62.00;;;;;;5052802;28;20167;-73
2021/09/14 13:21:31;;;;;;;5.07;3.67;;;22.80;61.90;;;;;;5051787;28;20236;-73
2021/09/14 13:23:56;;;;;;;4.30;3.13;;;22.70;61.90;;;;;;5052615;28;20262;-72
2021/09/14 13:26:22;;;;;;;3.95;3.53;;;22.70;62.00;;;;;;5052300;28;20171;-73
2021/09/14 13:28:48;;;;;;;4.70;3.42;;;22.60;62.10;;;;;;5052065;28;20214;-73
2021/09/14 13:31:13;;;;;;;4.38;3.50;;;22.50;62.20;;;;;;5054701;28;20253;-73
2021/09/14 13:33:39;;;;;;;3.90;3.30;;;22.50;62.30;;;;;;5056585;28;20507;-74
2021/09/14 13:36:04;;;;;;;4.13;3.08;;;22.40;62.50;;;;;;5055983;28;20174;-73